San Gennaro — IIOT2 — position and weather

sailwx.info

Track history (hours):
 
Tides and Currents Weather Stations Pressure Air Temp Water Temp Dewpoint Dewpoint Depression Visibility Wind Speed Wind Dir Waves Ship Positions

San Gennaro

Last reported at 2016-May-29 19:33 UTC. Time now 2016-May-29 21:08 UTC.
Position N 40°51' E 014°16'.

Length 27 m; draft 5.2 m.

Type: Tug. MMSI: 247295700.

Date/timePositionNaut miles runAvg speedWind from/ knotsBaromVisibWave heightAir tempDewpointWater temp
2016-May-29 19:33N 40°51' E 014°16'0 0.0
2016-May-29 13:16N 40°51' E 014°16'1 0.1
2016-May-29 07:33N 40°50' E 014°17'1 0.3
2016-May-29 05:30N 40°51' E 014°16'0 0.0
2016-May-29 04:27N 40°51' E 014°16'0 0.0
2016-May-29 03:33N 40°51' E 014°16'0 0.0
2016-May-29 02:23N 40°51' E 014°16'0 0.0
2016-May-29 01:28N 40°51' E 014°16'0 0.0
2016-May-29 00:33N 40°51' E 014°16'0 0.0
2016-May-28 23:33N 40°51' E 014°16'0 0.0
2016-May-28 22:33N 40°51' E 014°16'0 0.0
2016-May-28 20:28N 40°51' E 014°16'0 0.0
2016-May-28 19:26N 40°51' E 014°16'0 0.0
2016-May-28 18:32N 40°51' E 014°16'0 0.0
2016-May-28 17:22N 40°51' E 014°16'1 1.6
2016-May-28 16:32N 40°50' E 014°18'0 0.4
2016-May-28 15:30N 40°50' E 014°17'1 0.7
2016-May-28 14:03N 40°51' E 014°16'0 0.0
2016-May-28 13:12N 40°51' E 014°16'1 0.5
2016-May-28 10:33N 40°50' E 014°18'1 0.2
2016-May-28 03:23N 40°51' E 014°16'0 0.0
2016-May-28 02:34N 40°51' E 014°16'0 0.0
2016-May-28 01:34N 40°51' E 014°16'0 0.0
2016-May-28 00:33N 40°51' E 014°16'0 0.0
2016-May-27 22:30N 40°51' E 014°16'0 0.0
2016-May-27 21:28N 40°51' E 014°16'0 0.0
2016-May-27 20:33N 40°51' E 014°16'0 0.0
2016-May-27 19:32N 40°51' E 014°16'1 0.8
2016-May-27 18:33N 40°50' E 014°17'1 0.7
2016-May-27 17:25N 40°51' E 014°16'0 0.0
2016-May-27 16:28N 40°51' E 014°16'0 0.0
2016-May-27 15:33N 40°51' E 014°16'0 0.0
2016-May-27 10:31N 40°51' E 014°16'0 0.0
2016-May-27 09:34N 40°51' E 014°16'0 0.0
2016-May-27 08:28N 40°51' E 014°16'0 0.0
2016-May-27 07:32N 40°51' E 014°16'0 0.0
2016-May-27 06:29N 40°51' E 014°16'0 0.0
2016-May-27 05:33N 40°51' E 014°16'0 0.0
2016-May-27 04:33N 40°51' E 014°16'0 0.0
2016-May-27 03:33N 40°51' E 014°16'0 0.0
2016-May-27 02:33N 40°51' E 014°16'0 0.0
2016-May-27 01:34N 40°51' E 014°16'0 0.0
2016-May-27 00:33N 40°51' E 014°16'0 0.0
2016-May-26 23:31N 40°51' E 014°16'0 0.0
2016-May-26 22:32N 40°51' E 014°16'0 0.0
2016-May-26 21:33N 40°51' E 014°16'2 2.0
2016-May-26 20:33N 40°50' E 014°18'2 1.9
2016-May-26 19:33N 40°51' E 014°16'0 0.0
2016-May-26 18:30N 40°51' E 014°16'0 0.0
2016-May-26 17:30N 40°51' E 014°16'0 0.0
2016-May-26 16:33N 40°51' E 014°16'0 0.0
2016-May-26 15:33N 40°51' E 014°16'0 0.0
2016-May-26 14:33N 40°51' E 014°16'0 0.0
2016-May-26 13:33N 40°51' E 014°16'1010.1
2016-May-26 12:33N 40°43' E 014°25'3 2.7
2016-May-26 11:33N 40°42' E 014°28'2 1.9
2016-May-26 10:33N 40°43' E 014°27'1110.9
2016-May-26 09:33N 40°50' E 014°16'0 0.2
2016-May-26 08:33N 40°51' E 014°16'2 2.0
2016-May-26 07:33N 40°49' E 014°18'1 0.4
2016-May-26 05:33N 40°50' E 014°18'1 1.3
2016-May-26 04:31N 40°51' E 014°16'0 0.0
2016-May-26 03:29N 40°51' E 014°16'0 0.0
2016-May-26 02:34N 40°51' E 014°16'0 0.0
2016-May-26 01:28N 40°51' E 014°16'0 0.0
2016-May-26 00:34N 40°51' E 014°16'0 0.0
2016-May-25 23:33N 40°51' E 014°16'0 0.0
2016-May-25 22:34N 40°51' E 014°16'1 0.8
2016-May-25 21:33N 40°50' E 014°17'1 0.8
2016-May-25 20:33N 40°51' E 014°16'1 1.0
2016-May-25 19:33N 40°50' E 014°17'1 0.6
2016-May-25 18:33N 40°50' E 014°17'0 0.1
2016-May-25 12:33N 40°50' E 014°17'1 0.8
2016-May-25 11:26N 40°51' E 014°16'0 0.0
2016-May-25 10:30N 40°51' E 014°16'0 0.0
2016-May-25 08:17N 40°51' E 014°16'0 0.0
2016-May-25 07:30N 40°51' E 014°16'0 0.0
2016-May-24 22:33N 40°51' E 014°16'0 0.0
2016-May-24 21:33N 40°51' E 014°16'0 0.0
2016-May-24 20:32N 40°51' E 014°16'0 0.0
2016-May-24 19:26N 40°51' E 014°16'0 0.0
2016-May-24 18:29N 40°51' E 014°16'0 0.0
2016-May-24 17:33N 40°51' E 014°16'0 0.0
2016-May-24 16:30N 40°51' E 014°16'0 0.0
2016-May-24 15:32N 40°51' E 014°16'0 0.0
2016-May-24 14:25N 40°51' E 014°16'0 0.0
2016-May-24 13:32N 40°51' E 014°16'0 0.0
2016-May-24 12:29N 40°51' E 014°16'4 4.6
2016-May-24 11:33N 40°47' E 014°20'6 5.9
2016-May-24 10:33N 40°45' E 014°27'3 3.0
2016-May-24 09:32N 40°45' E 014°23'6 6.1
2016-May-24 08:31N 40°50' E 014°18'0 0.2
2016-May-24 07:29N 40°50' E 014°17'2 1.4
2016-May-24 06:21N 40°50' E 014°15'1 0.6
2016-May-24 05:33N 40°51' E 014°16'0 0.4
2016-May-24 04:28N 40°50' E 014°16'0 0.5
2016-May-24 03:33N 40°51' E 014°16'0 0.0
2016-May-24 02:33N 40°51' E 014°16'0 0.0
2016-May-24 01:33N 40°51' E 014°16'0 0.0
2016-May-24 00:33N 40°51' E 014°16'0 0.0
2016-May-23 23:33N 40°51' E 014°16'0 0.0
2016-May-23 22:33N 40°51' E 014°16'0 0.0
2016-May-23 21:33N 40°51' E 014°16'0 0.0
2016-May-23 20:33N 40°51' E 014°16'0 0.0
2016-May-23 19:33N 40°51' E 014°16'0 0.0
2016-May-23 18:33N 40°51' E 014°16'0 0.0
2016-May-23 17:33N 40°51' E 014°16'0 0.0
2016-May-23 16:33N 40°51' E 014°16'0 0.0
2016-May-23 15:32N 40°51' E 014°16'0 0.0
2016-May-23 14:15N 40°51' E 014°16'0 0.0
2016-May-23 13:33N 40°51' E 014°16'0 0.0
2016-May-23 12:33N 40°51' E 014°16'0 0.1
2016-May-23 11:31N 40°50' E 014°16'1 1.1
2016-May-23 10:33N 40°50' E 014°17'1 0.2
2016-May-23 03:33N 40°51' E 014°16'0 0.0
2016-May-23 02:33N 40°51' E 014°16'0 0.0
2016-May-23 01:33N 40°51' E 014°16'0 0.0
2016-May-23 00:33N 40°51' E 014°16'0 0.0
2016-May-22 23:33N 40°51' E 014°16'0 0.0
2016-May-22 22:33N 40°51' E 014°16'0 0.0
2016-May-22 21:33N 40°51' E 014°16'0 0.0
2016-May-22 20:33N 40°51' E 014°16'0 0.0
2016-May-22 19:33N 40°51' E 014°16'0 0.0
2016-May-22 18:32N 40°51' E 014°16'0 0.0
2016-May-22 17:34N 40°51' E 014°16'0 0.0
2016-May-22 16:33N 40°51' E 014°16'0 0.0
2016-May-22 15:23N 40°51' E 014°16'0 0.0
2016-May-22 14:16N 40°51' E 014°16'1 1.9
2016-May-22 13:33N 40°50' E 014°17'1 1.3
2016-May-22 12:33N 40°51' E 014°16'0 0.0
2016-May-22 11:33N 40°51' E 014°16'0 0.0
2016-May-22 10:33N 40°51' E 014°16'1 0.8
2016-May-22 09:33N 40°50' E 014°17'1 0.8
2016-May-22 08:33N 40°51' E 014°16'1 1.0
2016-May-22 07:33N 40°50' E 014°17'1 0.5
2016-May-22 05:27N 40°51' E 014°16'0 0.0
2016-May-22 04:32N 40°51' E 014°16'0 0.0
2016-May-22 03:33N 40°51' E 014°16'1 1.3
2016-May-22 02:33N 40°50' E 014°18'1 1.3
2016-May-22 01:33N 40°51' E 014°16'0 0.0
2016-May-22 00:33N 40°51' E 014°16'0 0.0
2016-May-21 23:33N 40°51' E 014°16'0 0.0
2016-May-21 22:33N 40°51' E 014°16'0 0.0
2016-May-21 21:33N 40°51' E 014°16'0 0.0
2016-May-21 20:33N 40°51' E 014°16'0 0.0
2016-May-21 19:33N 40°51' E 014°16'0 0.0
2016-May-21 18:33N 40°51' E 014°16'0 0.0
2016-May-21 17:32N 40°51' E 014°16'0 0.0
2016-May-21 15:31N 40°51' E 014°16'0 0.0
2016-May-21 06:22N 40°51' E 014°16'1 0.3
2016-May-21 04:33N 40°50' E 014°16'1 0.6
2016-May-21 03:33N 40°51' E 014°16'0 0.0
2016-May-21 02:33N 40°51' E 014°16'2 1.9
2016-May-21 01:33N 40°50' E 014°18'2 1.9
2016-May-21 00:33N 40°51' E 014°16'0 0.0
2016-May-20 23:33N 40°51' E 014°16'0 0.0
2016-May-20 22:34N 40°51' E 014°16'0 0.0
2016-May-20 21:34N 40°51' E 014°16'0 0.0
2016-May-20 20:34N 40°51' E 014°16'0 0.0
2016-May-20 19:32N 40°51' E 014°16'0 0.0
2016-May-20 18:30N 40°51' E 014°16'0 0.0
2016-May-20 17:32N 40°51' E 014°16'0 0.0
2016-May-20 16:21N 40°51' E 014°16'0 0.0
2016-May-20 15:29N 40°51' E 014°16'0 0.0
2016-May-20 14:33N 40°51' E 014°16'0 0.1
2016-May-20 13:32N 40°50' E 014°16'0 0.1
2016-May-20 12:33N 40°51' E 014°16'1 0.7
2016-May-20 11:32N 40°50' E 014°17'0 0.3
2016-May-20 10:33N 40°50' E 014°17'1 1.0
2016-May-20 09:32N 40°51' E 014°16'0 0.0
2016-May-20 08:32N 40°51' E 014°16'1 1.0
2016-May-20 07:33N 40°50' E 014°17'1 1.1
2016-May-20 06:34N 40°51' E 014°16'0 0.0
2016-May-20 05:28N 40°51' E 014°16'  
Track history (hours):
 
Tides and Currents Weather Stations Pressure Air Temp Water Temp Dewpoint Dewpoint Depression Visibility Wind Speed Wind Dir Waves Ship Positions

San Gennaro

Last reported at 2016-May-29 19:33 UTC. Time now 2016-May-29 21:08 UTC.
Position N 40°51' E 014°16'.

Length 27 m; draft 5.2 m.

Type: Tug. MMSI: 247295700.

Date/timePositionNaut miles runAvg speedWind from/ knotsBaromVisibWave heightAir tempDewpointWater temp
2016-May-29 19:33N 40°51' E 014°16'0 0.0
2016-May-29 13:16N 40°51' E 014°16'1 0.1
2016-May-29 07:33N 40°50' E 014°17'1 0.3
2016-May-29 05:30N 40°51' E 014°16'0 0.0
2016-May-29 04:27N 40°51' E 014°16'0 0.0
2016-May-29 03:33N 40°51' E 014°16'0 0.0
2016-May-29 02:23N 40°51' E 014°16'0 0.0
2016-May-29 01:28N 40°51' E 014°16'0 0.0
2016-May-29 00:33N 40°51' E 014°16'0 0.0
2016-May-28 23:33N 40°51' E 014°16'0 0.0
2016-May-28 22:33N 40°51' E 014°16'0 0.0
2016-May-28 20:28N 40°51' E 014°16'0 0.0
2016-May-28 19:26N 40°51' E 014°16'0 0.0
2016-May-28 18:32N 40°51' E 014°16'0 0.0
2016-May-28 17:22N 40°51' E 014°16'1 1.6
2016-May-28 16:32N 40°50' E 014°18'0 0.4
2016-May-28 15:30N 40°50' E 014°17'1 0.7
2016-May-28 14:03N 40°51' E 014°16'0 0.0
2016-May-28 13:12N 40°51' E 014°16'1 0.5
2016-May-28 10:33N 40°50' E 014°18'1 0.2
2016-May-28 03:23N 40°51' E 014°16'0 0.0
2016-May-28 02:34N 40°51' E 014°16'0 0.0
2016-May-28 01:34N 40°51' E 014°16'0 0.0
2016-May-28 00:33N 40°51' E 014°16'0 0.0
2016-May-27 22:30N 40°51' E 014°16'0 0.0
2016-May-27 21:28N 40°51' E 014°16'0 0.0
2016-May-27 20:33N 40°51' E 014°16'0 0.0
2016-May-27 19:32N 40°51' E 014°16'1 0.8
2016-May-27 18:33N 40°50' E 014°17'1 0.7
2016-May-27 17:25N 40°51' E 014°16'0 0.0
2016-May-27 16:28N 40°51' E 014°16'0 0.0
2016-May-27 15:33N 40°51' E 014°16'0 0.0
2016-May-27 10:31N 40°51' E 014°16'0 0.0
2016-May-27 09:34N 40°51' E 014°16'0 0.0
2016-May-27 08:28N 40°51' E 014°16'0 0.0
2016-May-27 07:32N 40°51' E 014°16'0 0.0
2016-May-27 06:29N 40°51' E 014°16'0 0.0
2016-May-27 05:33N 40°51' E 014°16'0 0.0
2016-May-27 04:33N 40°51' E 014°16'0 0.0
2016-May-27 03:33N 40°51' E 014°16'0 0.0
2016-May-27 02:33N 40°51' E 014°16'0 0.0
2016-May-27 01:34N 40°51' E 014°16'0 0.0
2016-May-27 00:33N 40°51' E 014°16'0 0.0
2016-May-26 23:31N 40°51' E 014°16'0 0.0
2016-May-26 22:32N 40°51' E 014°16'0 0.0
2016-May-26 21:33N 40°51' E 014°16'2 2.0
2016-May-26 20:33N 40°50' E 014°18'2 1.9
2016-May-26 19:33N 40°51' E 014°16'0 0.0
2016-May-26 18:30N 40°51' E 014°16'0 0.0
2016-May-26 17:30N 40°51' E 014°16'0 0.0
2016-May-26 16:33N 40°51' E 014°16'0 0.0
2016-May-26 15:33N 40°51' E 014°16'0 0.0
2016-May-26 14:33N 40°51' E 014°16'0 0.0
2016-May-26 13:33N 40°51' E 014°16'1010.1
2016-May-26 12:33N 40°43' E 014°25'3 2.7
2016-May-26 11:33N 40°42' E 014°28'2 1.9
2016-May-26 10:33N 40°43' E 014°27'1110.9
2016-May-26 09:33N 40°50' E 014°16'0 0.2
2016-May-26 08:33N 40°51' E 014°16'2 2.0
2016-May-26 07:33N 40°49' E 014°18'1 0.4
2016-May-26 05:33N 40°50' E 014°18'1 1.3
2016-May-26 04:31N 40°51' E 014°16'0 0.0
2016-May-26 03:29N 40°51' E 014°16'0 0.0
2016-May-26 02:34N 40°51' E 014°16'0 0.0
2016-May-26 01:28N 40°51' E 014°16'0 0.0
2016-May-26 00:34N 40°51' E 014°16'0 0.0
2016-May-25 23:33N 40°51' E 014°16'0 0.0
2016-May-25 22:34N 40°51' E 014°16'1 0.8
2016-May-25 21:33N 40°50' E 014°17'1 0.8
2016-May-25 20:33N 40°51' E 014°16'1 1.0
2016-May-25 19:33N 40°50' E 014°17'1 0.6
2016-May-25 18:33N 40°50' E 014°17'0 0.1
2016-May-25 12:33N 40°50' E 014°17'1 0.8
2016-May-25 11:26N 40°51' E 014°16'0 0.0
2016-May-25 10:30N 40°51' E 014°16'0 0.0
2016-May-25 08:17N 40°51' E 014°16'0 0.0
2016-May-25 07:30N 40°51' E 014°16'0 0.0
2016-May-24 22:33N 40°51' E 014°16'0 0.0
2016-May-24 21:33N 40°51' E 014°16'0 0.0
2016-May-24 20:32N 40°51' E 014°16'0 0.0
2016-May-24 19:26N 40°51' E 014°16'0 0.0
2016-May-24 18:29N 40°51' E 014°16'0 0.0
2016-May-24 17:33N 40°51' E 014°16'0 0.0
2016-May-24 16:30N 40°51' E 014°16'0 0.0
2016-May-24 15:32N 40°51' E 014°16'0 0.0
2016-May-24 14:25N 40°51' E 014°16'0 0.0
2016-May-24 13:32N 40°51' E 014°16'0 0.0
2016-May-24 12:29N 40°51' E 014°16'4 4.6
2016-May-24 11:33N 40°47' E 014°20'6 5.9
2016-May-24 10:33N 40°45' E 014°27'3 3.0
2016-May-24 09:32N 40°45' E 014°23'6 6.1
2016-May-24 08:31N 40°50' E 014°18'0 0.2
2016-May-24 07:29N 40°50' E 014°17'2 1.4
2016-May-24 06:21N 40°50' E 014°15'1 0.6
2016-May-24 05:33N 40°51' E 014°16'0 0.4
2016-May-24 04:28N 40°50' E 014°16'0 0.5
2016-May-24 03:33N 40°51' E 014°16'0 0.0
2016-May-24 02:33N 40°51' E 014°16'0 0.0
2016-May-24 01:33N 40°51' E 014°16'0 0.0
2016-May-24 00:33N 40°51' E 014°16'0 0.0
2016-May-23 23:33N 40°51' E 014°16'0 0.0
2016-May-23 22:33N 40°51' E 014°16'0 0.0
2016-May-23 21:33N 40°51' E 014°16'0 0.0
2016-May-23 20:33N 40°51' E 014°16'0 0.0
2016-May-23 19:33N 40°51' E 014°16'0 0.0
2016-May-23 18:33N 40°51' E 014°16'0 0.0
2016-May-23 17:33N 40°51' E 014°16'0 0.0
2016-May-23 16:33N 40°51' E 014°16'0 0.0
2016-May-23 15:32N 40°51' E 014°16'0 0.0
2016-May-23 14:15N 40°51' E 014°16'0 0.0
2016-May-23 13:33N 40°51' E 014°16'0 0.0
2016-May-23 12:33N 40°51' E 014°16'0 0.1
2016-May-23 11:31N 40°50' E 014°16'1 1.1
2016-May-23 10:33N 40°50' E 014°17'1 0.2
2016-May-23 03:33N 40°51' E 014°16'0 0.0
2016-May-23 02:33N 40°51' E 014°16'0 0.0
2016-May-23 01:33N 40°51' E 014°16'0 0.0
2016-May-23 00:33N 40°51' E 014°16'0 0.0
2016-May-22 23:33N 40°51' E 014°16'0 0.0
2016-May-22 22:33N 40°51' E 014°16'0 0.0
2016-May-22 21:33N 40°51' E 014°16'0 0.0
2016-May-22 20:33N 40°51' E 014°16'0 0.0
2016-May-22 19:33N 40°51' E 014°16'0 0.0
2016-May-22 18:32N 40°51' E 014°16'0 0.0
2016-May-22 17:34N 40°51' E 014°16'0 0.0
2016-May-22 16:33N 40°51' E 014°16'0 0.0
2016-May-22 15:23N 40°51' E 014°16'0 0.0
2016-May-22 14:16N 40°51' E 014°16'1 1.9
2016-May-22 13:33N 40°50' E 014°17'1 1.3
2016-May-22 12:33N 40°51' E 014°16'0 0.0
2016-May-22 11:33N 40°51' E 014°16'0 0.0
2016-May-22 10:33N 40°51' E 014°16'1 0.8
2016-May-22 09:33N 40°50' E 014°17'1 0.8
2016-May-22 08:33N 40°51' E 014°16'1 1.0
2016-May-22 07:33N 40°50' E 014°17'1 0.5
2016-May-22 05:27N 40°51' E 014°16'0 0.0
2016-May-22 04:32N 40°51' E 014°16'0 0.0
2016-May-22 03:33N 40°51' E 014°16'1 1.3
2016-May-22 02:33N 40°50' E 014°18'1 1.3
2016-May-22 01:33N 40°51' E 014°16'0 0.0
2016-May-22 00:33N 40°51' E 014°16'0 0.0
2016-May-21 23:33N 40°51' E 014°16'0 0.0
2016-May-21 22:33N 40°51' E 014°16'0 0.0
2016-May-21 21:33N 40°51' E 014°16'0 0.0
2016-May-21 20:33N 40°51' E 014°16'0 0.0
2016-May-21 19:33N 40°51' E 014°16'0 0.0
2016-May-21 18:33N 40°51' E 014°16'0 0.0
2016-May-21 17:32N 40°51' E 014°16'0 0.0
2016-May-21 15:31N 40°51' E 014°16'0 0.0
2016-May-21 06:22N 40°51' E 014°16'1 0.3
2016-May-21 04:33N 40°50' E 014°16'1 0.6
2016-May-21 03:33N 40°51' E 014°16'0 0.0
2016-May-21 02:33N 40°51' E 014°16'2 1.9
2016-May-21 01:33N 40°50' E 014°18'2 1.9
2016-May-21 00:33N 40°51' E 014°16'0 0.0
2016-May-20 23:33N 40°51' E 014°16'0 0.0
2016-May-20 22:34N 40°51' E 014°16'0 0.0
2016-May-20 21:34N 40°51' E 014°16'0 0.0
2016-May-20 20:34N 40°51' E 014°16'0 0.0
2016-May-20 19:32N 40°51' E 014°16'0 0.0
2016-May-20 18:30N 40°51' E 014°16'0 0.0
2016-May-20 17:32N 40°51' E 014°16'0 0.0
2016-May-20 16:21N 40°51' E 014°16'0 0.0
2016-May-20 15:29N 40°51' E 014°16'0 0.0
2016-May-20 14:33N 40°51' E 014°16'0 0.1
2016-May-20 13:32N 40°50' E 014°16'0 0.1
2016-May-20 12:33N 40°51' E 014°16'1 0.7
2016-May-20 11:32N 40°50' E 014°17'0 0.3
2016-May-20 10:33N 40°50' E 014°17'1 1.0
2016-May-20 09:32N 40°51' E 014°16'0 0.0
2016-May-20 08:32N 40°51' E 014°16'1 1.0
2016-May-20 07:33N 40°50' E 014°17'1 1.1
2016-May-20 06:34N 40°51' E 014°16'0 0.0
2016-May-20 05:28N 40°51' E 014°16'  

Dump ship's entire track history